createdAt,value
2023-01-09T00:01:24.829Z,6.30
2023-01-09T00:03:52.935Z,6.30
2023-01-09T00:06:20.959Z,6.30
2023-01-09T00:08:50.398Z,6.30
2023-01-09T00:11:18.410Z,6.20
2023-01-09T00:13:47.136Z,6.30
2023-01-09T00:16:15.808Z,6.20
2023-01-09T00:18:43.782Z,6.20
2023-01-09T00:21:14.363Z,6.20
2023-01-09T00:23:42.494Z,6.20
2023-01-09T00:26:14.846Z,6.20
2023-01-09T00:28:42.930Z,6.20
2023-01-09T00:31:12.453Z,6.20
2023-01-09T00:33:43.668Z,6.20
2023-01-09T00:36:12.349Z,6.20
2023-01-09T00:38:41.203Z,6.20
2023-01-09T00:41:15.236Z,6.20
2023-01-09T00:43:46.302Z,6.20
2023-01-09T00:46:15.551Z,6.20
2023-01-09T00:48:46.980Z,6.20
2023-01-09T00:51:15.616Z,6.10
2023-01-09T00:53:44.641Z,6.10
2023-01-09T00:56:17.282Z,6.10
2023-01-09T00:58:45.670Z,6.10
2023-01-09T01:01:13.707Z,6.10
2023-01-09T01:03:42.123Z,6.10
2023-01-09T01:06:27.451Z,6.10
2023-01-09T01:08:56.808Z,6.10
2023-01-09T01:11:26.395Z,6.10
2023-01-09T01:13:54.693Z,6.10
2023-01-09T01:16:22.712Z,6.10
2023-01-09T01:18:50.720Z,6.10
2023-01-09T01:21:19.243Z,6.10
2023-01-09T01:23:47.219Z,6.10
2023-01-09T01:26:16.862Z,6.10
2023-01-09T01:28:46.181Z,6.10
2023-01-09T01:31:18.897Z,6.10
2023-01-09T01:33:46.905Z,6.10
2023-01-09T01:36:17.546Z,6.10
2023-01-09T01:38:46.824Z,6.10
2023-01-09T01:41:14.919Z,6.10
2023-01-09T01:43:56.196Z,6.10
2023-01-09T01:46:24.589Z,6.10
2023-01-09T01:48:56.557Z,6.10
2023-01-09T01:51:25.825Z,6.10
2023-01-09T01:53:58.638Z,6.10
2023-01-09T01:56:29.530Z,6.10
2023-01-09T01:59:02.484Z,6.10
2023-01-09T02:01:31.325Z,6.10
2023-01-09T02:04:01.283Z,6.10
2023-01-09T02:06:30.448Z,6.10
2023-01-09T02:08:58.822Z,6.10
2023-01-09T02:11:27.525Z,6.10
2023-01-09T02:13:55.719Z,6.10
2023-01-09T02:16:39.741Z,6.10
2023-01-09T02:19:21.929Z,6.10
2023-01-09T02:21:56.965Z,6.10
2023-01-09T02:24:41.858Z,6.10
2023-01-09T02:27:47.065Z,6.10
2023-01-09T02:30:31.220Z,6.10
2023-01-09T02:33:20.241Z,6.10
2023-01-09T02:36:01.049Z,6.20
2023-01-09T02:38:37.113Z,6.20
2023-01-09T02:41:12.500Z,6.20
2023-01-09T02:43:41.118Z,6.20
2023-01-09T02:46:20.560Z,6.20
2023-01-09T02:48:52.249Z,6.20
2023-01-09T02:51:29.027Z,6.20
2023-01-09T02:54:05.489Z,6.30
2023-01-09T02:56:58.977Z,6.30
2023-01-09T02:59:32.469Z,6.30
2023-01-09T03:02:14.399Z,6.30
2023-01-09T03:04:54.115Z,6.30
2023-01-09T03:07:26.917Z,6.40
2023-01-09T03:10:02.422Z,6.40
2023-01-09T03:12:33.276Z,6.40
2023-01-09T03:15:04.168Z,6.40
2023-01-09T03:17:38.350Z,6.40
2023-01-09T03:20:10.610Z,6.50
2023-01-09T03:22:40.952Z,6.50
2023-01-09T03:25:09.568Z,6.50
2023-01-09T03:27:37.635Z,6.50
2023-01-09T03:30:06.682Z,6.50
2023-01-09T03:32:36.020Z,6.50
2023-01-09T03:35:04.066Z,6.50
2023-01-09T03:37:32.059Z,6.50
2023-01-09T03:39:59.999Z,6.60
2023-01-09T03:42:27.980Z,6.60
2023-01-09T03:44:55.904Z,6.60
2023-01-09T03:47:23.864Z,6.60
2023-01-09T03:49:53.173Z,6.60
2023-01-09T03:52:21.135Z,6.60
2023-01-09T03:54:49.102Z,6.60
2023-01-09T03:57:17.098Z,6.60
2023-01-09T03:59:45.035Z,6.60
2023-01-09T04:02:13.177Z,6.60
2023-01-09T04:04:41.287Z,6.70
2023-01-09T04:07:10.605Z,6.70
2023-01-09T04:09:38.723Z,6.70
2023-01-09T04:12:07.405Z,6.70
2023-01-09T04:14:35.348Z,6.70
2023-01-09T04:17:03.381Z,6.70
2023-01-09T04:19:31.337Z,6.70
2023-01-09T04:21:59.280Z,6.70
2023-01-09T04:24:28.825Z,6.70
2023-01-09T04:26:57.069Z,6.70
2023-01-09T04:29:25.019Z,6.70
2023-01-09T04:31:53.040Z,6.70
2023-01-09T04:34:25.409Z,6.70
2023-01-09T04:36:54.097Z,6.70
2023-01-09T04:39:22.796Z,6.70
2023-01-09T04:41:52.144Z,6.70
2023-01-09T04:44:21.714Z,6.80
2023-01-09T04:46:50.934Z,6.80
2023-01-09T04:49:18.976Z,6.80
2023-01-09T04:51:47.021Z,6.80
2023-01-09T04:54:15.053Z,6.80
2023-01-09T04:56:43.055Z,6.80
2023-01-09T04:59:12.555Z,6.80
2023-01-09T05:01:40.943Z,6.80
2023-01-09T05:04:09.586Z,6.80
2023-01-09T05:06:37.712Z,6.80
2023-01-09T05:09:05.932Z,6.80
2023-01-09T05:11:33.965Z,6.80
2023-01-09T05:14:01.947Z,6.80
2023-01-09T05:16:32.093Z,6.70
2023-01-09T05:19:00.595Z,6.70
2023-01-09T05:21:29.099Z,6.70
2023-01-09T05:23:57.099Z,6.70
2023-01-09T05:26:25.672Z,6.70
2023-01-09T05:28:53.827Z,6.70
2023-01-09T05:31:22.114Z,6.70
2023-01-09T05:33:51.540Z,6.70
2023-01-09T05:36:19.924Z,6.70
2023-01-09T05:38:48.042Z,6.70
2023-01-09T05:41:16.148Z,6.70
2023-01-09T05:43:44.198Z,6.70
2023-01-09T05:46:12.427Z,6.70
2023-01-09T05:48:40.544Z,6.70
2023-01-09T05:51:09.899Z,6.70
2023-01-09T05:53:37.921Z,6.70
2023-01-09T05:56:06.208Z,6.70
2023-01-09T05:58:34.328Z,6.70
2023-01-09T06:01:02.473Z,6.70
2023-01-09T06:03:30.456Z,6.70
2023-01-09T06:05:58.479Z,6.70
2023-01-09T06:08:27.933Z,6.70
2023-01-09T06:10:55.907Z,6.70
2023-01-09T06:13:23.966Z,6.70
2023-01-09T06:15:52.077Z,6.70
2023-01-09T06:18:20.044Z,6.70
2023-01-09T06:20:48.107Z,6.70
2023-01-09T06:23:16.175Z,6.70
2023-01-09T06:25:45.585Z,6.70
2023-01-09T06:28:14.043Z,6.70
2023-01-09T06:30:42.111Z,6.70
2023-01-09T06:33:10.104Z,6.70
2023-01-09T06:35:38.137Z,6.70
2023-01-09T06:38:06.225Z,6.70
2023-01-09T06:40:34.233Z,6.70
2023-01-09T06:43:03.616Z,6.70
2023-01-09T06:45:31.663Z,6.70
2023-01-09T06:47:59.666Z,6.70
2023-01-09T06:50:27.653Z,6.70
2023-01-09T06:52:55.728Z,6.70
2023-01-09T06:55:23.784Z,6.70
2023-01-09T06:57:51.809Z,6.80
2023-01-09T07:00:22.016Z,6.70
2023-01-09T07:02:50.031Z,6.70
2023-01-09T07:05:18.088Z,6.70
2023-01-09T07:07:46.136Z,6.70
2023-01-09T07:10:14.363Z,6.70
2023-01-09T07:12:42.360Z,6.70
2023-01-09T07:15:11.082Z,6.70
2023-01-09T07:17:40.461Z,6.70
2023-01-09T07:20:09.535Z,6.70
2023-01-09T07:22:37.530Z,6.70
2023-01-09T07:25:06.353Z,6.70
2023-01-09T07:27:34.438Z,6.70
2023-01-09T07:30:02.481Z,6.70
2023-01-09T07:32:30.504Z,6.80
2023-01-09T07:34:59.939Z,6.80
2023-01-09T07:37:28.053Z,6.70
2023-01-09T07:39:56.050Z,6.80
2023-01-09T07:42:24.076Z,6.80
2023-01-09T07:44:52.389Z,6.80
2023-01-09T07:47:20.475Z,6.80
2023-01-09T07:49:48.466Z,6.80
2023-01-09T07:52:17.859Z,6.70
2023-01-09T07:54:45.850Z,6.70
2023-01-09T07:57:13.864Z,6.70
2023-01-09T07:59:41.842Z,6.70
2023-01-09T08:02:10.703Z,6.70
2023-01-09T08:04:38.750Z,6.70
2023-01-09T08:07:06.720Z,6.70
2023-01-09T08:09:36.169Z,6.70
2023-01-09T08:12:05.083Z,6.70
2023-01-09T08:14:33.156Z,6.80
2023-01-09T08:17:01.121Z,6.80
2023-01-09T08:19:29.319Z,6.80
2023-01-09T08:21:57.344Z,6.80
2023-01-09T08:24:25.331Z,6.80
2023-01-09T08:26:54.713Z,6.80
2023-01-09T08:29:22.795Z,6.90
2023-01-09T08:31:50.837Z,6.90
2023-01-09T08:34:19.177Z,6.90
2023-01-09T08:36:47.250Z,6.90
2023-01-09T08:39:15.267Z,7.00
2023-01-09T08:42:00.769Z,7.00
2023-01-09T08:44:47.423Z,7.00
2023-01-09T08:47:17.462Z,7.00
2023-01-09T08:49:45.466Z,7.00
2023-01-09T08:52:13.728Z,7.00
2023-01-09T08:54:41.760Z,7.00
2023-01-09T08:57:09.844Z,7.00
2023-01-09T08:59:39.204Z,7.00
2023-01-09T09:02:07.509Z,7.00
2023-01-09T09:04:35.528Z,7.00
2023-01-09T09:07:03.526Z,7.10
2023-01-09T09:09:31.502Z,7.10
2023-01-09T09:11:59.502Z,7.10
2023-01-09T09:14:44.759Z,7.10
2023-01-09T09:17:14.231Z,7.20
2023-01-09T09:19:42.789Z,7.20
2023-01-09T09:22:10.767Z,7.20
2023-01-09T09:24:39.041Z,7.20
2023-01-09T09:27:07.044Z,7.20
2023-01-09T09:29:35.046Z,7.20
2023-01-09T09:32:03.045Z,7.30
2023-01-09T09:34:32.547Z,7.30
2023-01-09T09:37:00.592Z,7.30
2023-01-09T09:39:28.607Z,7.30
2023-01-09T09:42:35.249Z,7.30
2023-01-09T09:45:23.870Z,7.30
2023-01-09T09:48:03.335Z,7.30
2023-01-09T09:51:06.073Z,7.40
2023-01-09T09:53:38.915Z,7.40
2023-01-09T09:56:09.831Z,7.40
2023-01-09T09:58:40.150Z,7.40
2023-01-09T10:01:09.455Z,7.40
2023-01-09T10:03:40.886Z,7.50
2023-01-09T10:06:16.377Z,7.50
2023-01-09T10:08:49.421Z,7.50
2023-01-09T10:11:24.568Z,7.50
2023-01-09T10:14:22.917Z,7.60
2023-01-09T10:17:07.901Z,7.60
2023-01-09T10:19:48.147Z,7.60
2023-01-09T10:22:26.138Z,7.60
2023-01-09T10:25:04.218Z,7.70
2023-01-09T10:27:49.770Z,7.70
2023-01-09T10:30:28.722Z,7.70
2023-01-09T10:33:06.428Z,7.80
2023-01-09T10:35:56.813Z,7.80
2023-01-09T10:38:30.169Z,7.80
2023-01-09T10:41:04.212Z,7.80
2023-01-09T10:43:39.753Z,7.80
2023-01-09T10:46:13.052Z,7.90
2023-01-09T10:51:21.269Z,7.90
2023-01-09T10:53:53.320Z,8.00
2023-01-09T10:56:24.671Z,8.00
2023-01-09T10:58:54.001Z,8.10
2023-01-09T11:01:26.829Z,8.10
2023-01-09T11:03:55.024Z,8.10
2023-01-09T11:06:25.806Z,8.20
2023-01-09T11:08:57.678Z,8.20
2023-01-09T11:11:37.287Z,8.20
2023-01-09T11:14:08.775Z,8.20
2023-01-09T11:16:36.748Z,8.30
2023-01-09T11:19:04.739Z,8.30
2023-01-09T11:21:35.953Z,8.30
2023-01-09T11:24:31.404Z,8.40
2023-01-09T11:27:23.610Z,8.40
2023-01-09T11:30:20.030Z,8.50
2023-01-09T11:32:48.920Z,8.50
2023-01-09T11:35:23.941Z,8.50
2023-01-09T11:38:05.277Z,8.50
2023-01-09T11:40:39.815Z,8.50
2023-01-09T11:43:16.311Z,8.60
2023-01-09T11:45:56.336Z,8.60
2023-01-09T11:48:38.557Z,8.70
2023-01-09T11:51:18.428Z,8.70
2023-01-09T11:53:53.533Z,8.70
2023-01-09T11:56:23.181Z,8.70
2023-01-09T11:58:51.317Z,8.70
2023-01-09T12:01:39.962Z,8.70
2023-01-09T12:04:25.015Z,8.80
2023-01-09T12:07:15.441Z,8.80
2023-01-09T12:09:51.336Z,8.80
2023-01-09T12:12:29.317Z,8.80
2023-01-09T12:15:13.390Z,8.90
2023-01-09T12:17:57.381Z,8.80
2023-01-09T12:20:41.596Z,8.90
2023-01-09T12:23:24.224Z,8.90
2023-01-09T12:26:03.428Z,9.00
2023-01-09T12:28:45.154Z,9.00
2023-01-09T12:31:26.880Z,9.00
2023-01-09T12:34:08.449Z,9.00
2023-01-09T12:36:44.298Z,9.10
2023-01-09T12:39:24.484Z,9.10
2023-01-09T12:42:06.291Z,9.20
2023-01-09T12:44:56.500Z,9.20
2023-01-09T12:47:46.850Z,9.20
2023-01-09T12:50:40.301Z,9.20
2023-01-09T12:53:16.522Z,9.20
2023-01-09T12:55:50.558Z,9.10
2023-01-09T12:58:33.315Z,9.10
2023-01-09T13:01:07.556Z,9.10
2023-01-09T13:03:40.425Z,9.10
2023-01-09T13:06:15.537Z,9.20
2023-01-09T13:08:49.523Z,9.20
2023-01-09T13:11:21.903Z,9.20
2023-01-09T13:13:53.915Z,9.20
2023-01-09T13:16:27.739Z,9.20
2023-01-09T13:19:01.657Z,9.20
2023-01-09T13:21:29.812Z,9.10
2023-01-09T13:24:04.840Z,9.10
2023-01-09T13:26:36.853Z,9.10
2023-01-09T13:29:11.085Z,9.10
2023-01-09T13:32:19.236Z,9.10
2023-01-09T13:34:51.135Z,9.20
2023-01-09T13:37:24.831Z,9.20
2023-01-09T13:39:58.353Z,9.20
2023-01-09T13:42:46.368Z,9.20
2023-01-09T13:45:24.752Z,9.30
2023-01-09T13:48:39.764Z,9.30
2023-01-09T13:51:56.907Z,9.30
2023-01-09T13:55:01.907Z,9.30
2023-01-09T13:57:32.792Z,9.20
2023-01-09T14:00:21.891Z,9.20
2023-01-09T14:02:58.107Z,9.20
2023-01-09T14:06:06.402Z,9.20
2023-01-09T14:08:35.385Z,9.10
2023-01-09T14:11:05.469Z,9.10
2023-01-09T14:13:35.710Z,9.20
2023-01-09T14:16:07.307Z,9.10
2023-01-09T14:18:38.749Z,9.10
2023-01-09T14:21:10.974Z,9.10
2023-01-09T14:23:52.699Z,9.10
2023-01-09T14:26:23.776Z,9.00
2023-01-09T14:28:52.025Z,9.00
2023-01-09T14:31:31.008Z,9.00
2023-01-09T14:34:32.315Z,8.90
2023-01-09T14:37:03.695Z,8.80
2023-01-09T14:39:33.547Z,8.70
2023-01-09T14:42:08.235Z,8.70
2023-01-09T14:44:48.122Z,8.60
2023-01-09T14:47:20.799Z,8.60
2023-01-09T14:49:55.220Z,8.50
2023-01-09T14:52:29.012Z,8.50
2023-01-09T14:55:00.508Z,8.40
2023-01-09T14:57:30.299Z,8.30
2023-01-09T14:59:59.930Z,8.30
2023-01-09T15:02:31.124Z,8.30
2023-01-09T15:05:02.625Z,8.30
2023-01-09T15:07:34.800Z,8.30
2023-01-09T15:10:04.613Z,8.30
2023-01-09T15:12:33.352Z,8.30
2023-01-09T15:15:04.749Z,8.30
2023-01-09T15:17:38.244Z,8.30
2023-01-09T15:20:07.610Z,8.30
2023-01-09T15:22:39.135Z,8.30
2023-01-09T15:25:33.843Z,8.30
2023-01-09T15:28:26.255Z,8.30
2023-01-09T15:30:57.682Z,8.30
2023-01-09T15:33:26.027Z,8.30
2023-01-09T15:36:00.171Z,8.30
2023-01-09T15:38:32.203Z,8.30
2023-01-09T15:41:02.236Z,8.30
2023-01-09T15:43:31.461Z,8.30
2023-01-09T15:46:00.188Z,8.30
2023-01-09T15:48:30.820Z,8.30
2023-01-09T15:51:03.356Z,8.30
2023-01-09T15:53:33.279Z,8.30
2023-01-09T15:56:08.790Z,8.20
2023-01-09T15:58:38.042Z,8.20
2023-01-09T16:01:08.293Z,8.20
2023-01-09T16:03:38.155Z,8.20
2023-01-09T16:06:11.550Z,8.20
2023-01-09T16:08:42.742Z,8.20
2023-01-09T16:11:22.656Z,8.10
2023-01-09T16:13:51.367Z,8.10
2023-01-09T16:16:27.239Z,8.10
2023-01-09T16:18:56.626Z,8.10
2023-01-09T16:21:35.680Z,8.00
2023-01-09T16:24:22.903Z,8.00
2023-01-09T16:26:53.641Z,8.00
2023-01-09T16:29:29.474Z,7.90
2023-01-09T16:32:01.640Z,7.90
2023-01-09T16:34:29.961Z,7.90
2023-01-09T16:36:58.003Z,7.90
2023-01-09T16:39:27.417Z,7.80
2023-01-09T16:42:15.862Z,7.80
2023-01-09T16:44:44.071Z,7.80
2023-01-09T16:47:13.313Z,7.70
2023-01-09T16:49:41.274Z,7.60
2023-01-09T16:52:16.877Z,7.60
2023-01-09T16:54:47.494Z,7.60
2023-01-09T16:57:19.002Z,7.60
2023-01-09T16:59:47.467Z,7.50
2023-01-09T17:02:18.909Z,7.50
2023-01-09T17:04:47.135Z,7.50
2023-01-09T17:07:16.538Z,7.50
2023-01-09T17:09:47.611Z,7.50
2023-01-09T17:12:19.982Z,7.50
2023-01-09T17:14:47.966Z,7.40
2023-01-09T17:17:16.516Z,7.40
2023-01-09T17:19:46.566Z,7.40
2023-01-09T17:22:15.107Z,7.40
2023-01-09T17:25:00.882Z,7.30
2023-01-09T17:27:51.730Z,7.30
2023-01-09T17:30:20.423Z,7.30
2023-01-09T17:32:48.932Z,7.30
2023-01-09T17:35:17.388Z,7.20
2023-01-09T17:37:46.003Z,7.20
2023-01-09T17:40:19.512Z,7.20
2023-01-09T17:42:48.876Z,7.20
2023-01-09T17:45:16.998Z,7.10
2023-01-09T17:47:45.166Z,7.10
2023-01-09T17:50:19.266Z,7.10
2023-01-09T17:52:47.488Z,7.10
2023-01-09T17:55:15.541Z,7.10
2023-01-09T17:57:45.312Z,7.00
2023-01-09T18:00:23.709Z,7.00
2023-01-09T18:02:52.337Z,7.00
2023-01-09T18:05:20.361Z,7.00
2023-01-09T18:07:48.351Z,7.00
2023-01-09T18:10:18.323Z,7.00
2023-01-09T18:12:48.657Z,6.90
2023-01-09T18:15:18.304Z,6.90
2023-01-09T18:17:46.275Z,6.90
2023-01-09T18:20:14.470Z,6.90
2023-01-09T18:22:42.455Z,6.90
2023-01-09T18:25:10.926Z,6.90
2023-01-09T18:27:39.786Z,6.80
2023-01-09T18:30:08.992Z,6.80
2023-01-09T18:32:38.352Z,6.80
2023-01-09T18:35:08.806Z,6.80
2023-01-09T18:37:37.213Z,6.80
2023-01-09T18:40:05.950Z,6.80
2023-01-09T18:42:33.914Z,6.80
2023-01-09T18:45:01.908Z,6.80
2023-01-09T18:47:29.891Z,6.70
2023-01-09T18:49:59.279Z,6.70
2023-01-09T18:52:27.329Z,6.70
2023-01-09T18:54:55.297Z,6.70
2023-01-09T18:57:23.258Z,6.70
2023-01-09T18:59:51.244Z,6.70
2023-01-09T19:02:21.358Z,6.60
2023-01-09T19:04:49.525Z,6.60
2023-01-09T19:07:19.158Z,6.60
2023-01-09T19:09:47.659Z,6.50
2023-01-09T19:12:15.621Z,6.50
2023-01-09T19:14:43.609Z,6.50
2023-01-09T19:17:11.622Z,6.50
2023-01-09T19:19:39.623Z,6.50
2023-01-09T19:22:07.934Z,6.50
2023-01-09T19:24:37.673Z,6.50
2023-01-09T19:27:05.655Z,6.50
2023-01-09T19:29:35.806Z,6.50
2023-01-09T19:32:08.296Z,6.40
2023-01-09T19:34:36.525Z,6.50
2023-01-09T19:37:04.595Z,6.40
2023-01-09T19:39:32.884Z,6.40
2023-01-09T19:42:02.263Z,6.40
2023-01-09T19:44:32.540Z,6.50
2023-01-09T19:47:00.631Z,6.40
2023-01-09T19:49:28.576Z,6.40
2023-01-09T19:51:56.556Z,6.40
2023-01-09T19:54:24.677Z,6.40
2023-01-09T19:56:52.627Z,6.40
2023-01-09T19:59:21.941Z,6.40
2023-01-09T20:01:49.936Z,6.40
2023-01-09T20:04:18.797Z,6.40
2023-01-09T20:06:48.610Z,6.40
2023-01-09T20:09:19.366Z,6.40
2023-01-09T20:11:47.337Z,6.40
2023-01-09T20:14:16.780Z,6.40
2023-01-09T20:16:47.399Z,6.40
2023-01-09T20:19:16.805Z,6.40
2023-01-09T20:21:45.103Z,6.40
2023-01-09T20:24:16.632Z,6.40
2023-01-09T20:26:46.145Z,6.40
2023-01-09T20:29:14.457Z,6.30
2023-01-09T20:31:42.444Z,6.30
2023-01-09T20:34:13.246Z,6.30
2023-01-09T20:36:41.530Z,6.30
2023-01-09T20:39:11.999Z,6.30
2023-01-09T20:41:40.285Z,6.30
2023-01-09T20:44:12.210Z,6.30
2023-01-09T20:46:41.711Z,6.30
2023-01-09T20:49:13.573Z,6.30
2023-01-09T20:51:43.466Z,6.30
2023-01-09T20:54:11.447Z,6.30
2023-01-09T20:56:39.412Z,6.20
2023-01-09T20:59:11.439Z,6.20
2023-01-09T21:01:40.273Z,6.20
2023-01-09T21:04:09.994Z,6.20
2023-01-09T21:06:39.889Z,6.20
2023-01-09T21:09:08.152Z,6.20
2023-01-09T21:11:36.511Z,6.20
2023-01-09T21:14:04.531Z,6.20
2023-01-09T21:16:32.558Z,6.10
2023-01-09T21:19:00.651Z,6.10
2023-01-09T21:21:28.624Z,6.20
2023-01-09T21:24:00.659Z,6.10
2023-01-09T21:26:30.831Z,6.20
2023-01-09T21:29:00.578Z,6.20
2023-01-09T21:31:33.596Z,6.20
2023-01-09T21:34:03.578Z,6.20
2023-01-09T21:36:31.766Z,6.20
2023-01-09T21:39:01.871Z,6.20
2023-01-09T21:41:47.994Z,6.20
2023-01-09T21:44:33.401Z,6.20
2023-01-09T21:47:02.792Z,6.30
2023-01-09T21:49:34.890Z,6.30
2023-01-09T21:52:04.589Z,6.30
2023-01-09T21:54:34.806Z,6.30
2023-01-09T21:57:04.054Z,6.30
2023-01-09T21:59:32.227Z,6.30
2023-01-09T22:02:00.536Z,6.30
2023-01-09T22:04:29.434Z,6.30
2023-01-09T22:06:57.647Z,6.30
2023-01-09T22:09:25.592Z,6.40
2023-01-09T22:11:54.941Z,6.30
2023-01-09T22:14:23.079Z,6.40
2023-01-09T22:16:51.079Z,6.30
2023-01-09T22:19:19.089Z,6.30
2023-01-09T22:21:47.496Z,6.30
2023-01-09T22:24:17.411Z,6.30
2023-01-09T22:26:45.998Z,6.30
2023-01-09T22:29:16.081Z,6.30
2023-01-09T22:31:44.268Z,6.30
2023-01-09T22:34:16.151Z,6.30
2023-01-09T22:36:44.985Z,6.30
2023-01-09T22:39:14.764Z,6.30
2023-01-09T22:41:42.797Z,6.40
2023-01-09T22:44:11.971Z,6.40
2023-01-09T22:46:41.325Z,6.40
2023-01-09T22:49:11.959Z,6.40
2023-01-09T22:51:40.004Z,6.30
2023-01-09T22:54:08.020Z,6.30
2023-01-09T22:56:36.197Z,6.30
2023-01-09T22:59:04.192Z,6.20
2023-01-09T23:01:32.224Z,6.10
2023-01-09T23:04:03.703Z,6.10
2023-01-09T23:06:31.680Z,6.00
2023-01-09T23:08:59.664Z,5.90
2023-01-09T23:11:47.596Z,5.90
2023-01-09T23:14:15.654Z,5.90
2023-01-09T23:16:43.661Z,5.80
2023-01-09T23:19:15.676Z,5.80
2023-01-09T23:21:44.843Z,5.80
2023-01-09T23:24:14.568Z,5.80
2023-01-09T23:26:43.605Z,5.80
2023-01-09T23:29:12.335Z,5.80
2023-01-09T23:31:40.323Z,5.80
2023-01-09T23:34:09.070Z,5.90
2023-01-09T23:36:38.456Z,5.80
2023-01-09T23:39:09.056Z,5.70
2023-01-09T23:41:54.574Z,5.70
2023-01-09T23:44:22.659Z,5.70
2023-01-09T23:46:50.638Z,5.60
2023-01-09T23:49:18.686Z,5.60
2023-01-09T23:51:48.078Z,5.70
2023-01-09T23:54:16.698Z,5.60
2023-01-09T23:56:44.804Z,5.60
2023-01-09T23:59:14.547Z,5.70
